createdAt,value
2019-02-20T00:01:56.565Z,45.60
2019-02-20T00:04:24.906Z,45.50
2019-02-20T00:06:57.362Z,45.60
2019-02-20T00:09:25.668Z,45.80
2019-02-20T00:11:54.379Z,45.70
2019-02-20T00:14:22.951Z,45.80
2019-02-20T00:16:51.752Z,45.60
2019-02-20T00:19:20.343Z,45.70
2019-02-20T00:21:49.114Z,45.70
2019-02-20T00:24:17.398Z,45.70
2019-02-20T00:26:45.971Z,45.70
2019-02-20T00:29:14.259Z,45.80
2019-02-20T00:31:42.557Z,45.80
2019-02-20T00:34:10.850Z,45.70
2019-02-20T00:36:39.492Z,45.70
2019-02-20T00:39:08.949Z,45.70
2019-02-20T00:41:37.578Z,45.80
2019-02-20T00:44:07.528Z,45.70
2019-02-20T00:46:37.815Z,45.70
2019-02-20T00:49:08.049Z,45.80
2019-02-20T00:51:50.381Z,46.10
2019-02-20T00:54:18.936Z,46.00
2019-02-20T00:56:47.511Z,46.00
2019-02-20T00:59:16.942Z,46.10
2019-02-20T01:01:45.705Z,46.10
2019-02-20T01:04:13.994Z,46.10
2019-02-20T01:06:45.320Z,46.00
2019-02-20T01:09:12.899Z,46.10
2019-02-20T01:11:43.060Z,46.50
2019-02-20T01:14:11.697Z,46.10
2019-02-20T01:16:39.983Z,46.10
2019-02-20T01:19:08.568Z,46.00
2019-02-20T01:21:37.148Z,46.00
2019-02-20T01:24:05.456Z,46.00
2019-02-20T01:26:34.127Z,46.00
2019-02-20T01:29:02.506Z,46.00
2019-02-20T01:31:30.881Z,46.00
2019-02-20T01:33:59.196Z,46.00
2019-02-20T01:36:27.500Z,45.20
2019-02-20T01:38:56.199Z,45.10
2019-02-20T01:41:24.782Z,45.40
2019-02-20T01:43:53.088Z,45.50
2019-02-20T01:46:21.643Z,45.50
2019-02-20T01:48:49.940Z,45.80
2019-02-20T01:51:18.314Z,45.90
2019-02-20T01:53:46.603Z,45.90
2019-02-20T01:56:15.159Z,45.90
2019-02-20T01:58:44.449Z,45.90
2019-02-20T02:01:12.822Z,45.90
2019-02-20T02:03:41.114Z,45.80
2019-02-20T02:06:09.419Z,45.90
2019-02-20T02:08:38.080Z,45.90
2019-02-20T02:11:06.626Z,45.90
2019-02-20T02:13:34.914Z,45.90
2019-02-20T02:16:03.213Z,46.00
2019-02-20T02:18:31.802Z,45.90
2019-02-20T02:21:00.482Z,45.90
2019-02-20T02:23:29.069Z,45.90
2019-02-20T02:25:57.402Z,45.90
2019-02-20T02:28:25.704Z,45.90
2019-02-20T02:30:54.005Z,45.90
2019-02-20T02:33:22.371Z,45.90
2019-02-20T02:35:50.688Z,45.80
2019-02-20T02:38:18.982Z,45.80
2019-02-20T02:40:47.631Z,45.80
2019-02-20T02:43:15.926Z,45.80
2019-02-20T02:45:44.609Z,45.80
2019-02-20T02:48:12.991Z,45.90
2019-02-20T02:50:41.326Z,45.80
2019-02-20T02:53:09.684Z,45.80
2019-02-20T02:55:38.300Z,45.80
2019-02-20T02:58:06.885Z,45.80
2019-02-20T03:00:35.261Z,45.70
2019-02-20T03:03:03.809Z,45.70
2019-02-20T03:05:32.206Z,45.90
2019-02-20T03:08:00.912Z,45.80
2019-02-20T03:10:29.200Z,45.80
2019-02-20T03:12:57.778Z,45.70
2019-02-20T03:15:26.070Z,45.90
2019-02-20T03:17:54.369Z,45.90
2019-02-20T03:20:23.021Z,45.80
2019-02-20T03:22:51.321Z,45.80
2019-02-20T03:25:20.084Z,45.90
2019-02-20T03:27:48.661Z,45.90
2019-02-20T03:30:16.955Z,45.90
2019-02-20T03:32:45.354Z,45.70
2019-02-20T03:35:13.909Z,45.80
2019-02-20T03:37:42.612Z,45.70
2019-02-20T03:40:10.951Z,45.90
2019-02-20T03:42:39.377Z,45.70
2019-02-20T03:45:07.859Z,45.70
2019-02-20T03:47:36.524Z,45.70
2019-02-20T03:50:06.007Z,45.70
2019-02-20T03:52:34.318Z,45.70
2019-02-20T03:55:02.623Z,45.70
2019-02-20T03:57:30.905Z,45.70
2019-02-20T03:59:59.545Z,45.60
2019-02-20T04:02:27.893Z,45.60
2019-02-20T04:04:56.199Z,45.70
2019-02-20T04:07:24.512Z,45.80
2019-02-20T04:09:52.813Z,45.70
2019-02-20T04:12:21.200Z,45.70
2019-02-20T04:14:49.493Z,45.70
2019-02-20T04:17:17.807Z,45.70
2019-02-20T04:19:46.115Z,45.80
2019-02-20T04:22:14.433Z,45.70
2019-02-20T04:24:42.710Z,45.70
2019-02-20T04:27:11.026Z,45.70
2019-02-20T04:29:39.418Z,45.70
2019-02-20T04:32:07.793Z,45.80
2019-02-20T04:34:36.079Z,45.70
2019-02-20T04:37:04.711Z,45.70
2019-02-20T04:39:33.388Z,45.70
2019-02-20T04:42:01.678Z,45.80
2019-02-20T04:44:30.049Z,45.70
2019-02-20T04:46:58.334Z,45.60
2019-02-20T04:49:26.636Z,45.70
2019-02-20T04:51:55.015Z,45.70
2019-02-20T04:54:23.306Z,45.70
2019-02-20T04:56:51.943Z,45.70
2019-02-20T04:59:20.244Z,45.70
2019-02-20T05:01:48.626Z,45.70
2019-02-20T05:04:17.027Z,45.70
2019-02-20T05:06:45.323Z,45.60
2019-02-20T05:09:13.943Z,45.60
2019-02-20T05:11:45.594Z,45.30
2019-02-20T05:14:13.884Z,45.70
2019-02-20T05:16:42.189Z,45.70
2019-02-20T05:19:10.554Z,45.60
2019-02-20T05:21:39.114Z,45.60
2019-02-20T05:24:07.692Z,45.70
2019-02-20T05:26:36.867Z,45.70
2019-02-20T05:29:05.575Z,45.70
2019-02-20T05:31:33.878Z,45.80
2019-02-20T05:34:02.201Z,45.80
2019-02-20T05:36:30.823Z,45.80
2019-02-20T05:38:59.138Z,45.80
2019-02-20T05:41:27.492Z,45.70
2019-02-20T05:43:56.060Z,45.80
2019-02-20T05:46:24.363Z,45.70
2019-02-20T05:48:52.657Z,45.80
2019-02-20T05:51:21.187Z,45.80
2019-02-20T05:53:49.504Z,45.80
2019-02-20T05:56:17.850Z,45.60
2019-02-20T05:58:48.888Z,45.60
2019-02-20T06:01:17.471Z,45.60
2019-02-20T06:03:45.768Z,45.60
2019-02-20T06:06:14.446Z,45.70
2019-02-20T06:08:43.121Z,45.70
2019-02-20T06:11:14.755Z,45.70
2019-02-20T06:13:41.731Z,45.60
2019-02-20T06:16:10.031Z,45.50
2019-02-20T06:18:38.330Z,45.60
2019-02-20T06:21:06.657Z,45.60
2019-02-20T06:23:34.939Z,45.50
2019-02-20T06:26:03.592Z,45.50
2019-02-20T06:28:32.050Z,45.40
2019-02-20T06:31:00.686Z,45.50
2019-02-20T06:33:29.267Z,45.40
2019-02-20T06:35:57.547Z,45.50
2019-02-20T06:38:26.127Z,45.40
2019-02-20T10:54:06.856Z,45.70
2019-02-20T10:56:35.140Z,45.60
2019-02-20T10:59:03.589Z,45.50
2019-02-20T11:01:32.350Z,45.50
2019-02-20T11:04:00.651Z,45.60
2019-02-20T11:06:29.257Z,45.50
2019-02-20T11:08:57.840Z,45.70
2019-02-20T11:11:26.422Z,45.60
2019-02-20T11:13:54.717Z,45.60
2019-02-20T11:16:23.289Z,45.60
2019-02-20T11:18:51.568Z,45.60
2019-02-20T11:21:19.871Z,45.60
2019-02-20T11:23:54.169Z,45.50
2019-02-20T11:26:22.739Z,45.40
2019-02-20T11:28:51.015Z,45.50
2019-02-20T11:31:19.616Z,45.50
2019-02-20T11:33:48.288Z,45.40
2019-02-20T11:36:16.647Z,45.60
2019-02-20T11:38:45.260Z,45.50
2019-02-20T11:41:13.610Z,45.60
2019-02-20T11:43:42.023Z,45.50
2019-02-20T11:46:10.594Z,45.70
2019-02-20T11:48:38.899Z,45.60
2019-02-20T11:51:07.183Z,45.60
2019-02-20T11:53:37.438Z,45.50
2019-02-20T11:56:08.507Z,46.10
2019-02-20T11:58:36.834Z,45.30
2019-02-20T12:01:05.581Z,45.30
2019-02-20T12:03:34.159Z,45.40
2019-02-20T12:06:02.439Z,46.10
2019-02-20T12:08:30.750Z,45.50
2019-02-20T12:10:59.029Z,45.40
2019-02-20T12:13:27.570Z,45.50
2019-02-20T12:15:55.873Z,45.40
2019-02-20T12:18:24.441Z,45.40
2019-02-20T12:20:53.014Z,45.40
2019-02-20T12:23:21.334Z,45.30
2019-02-20T12:25:49.985Z,45.40
2019-02-20T12:28:18.283Z,45.30
2019-02-20T12:30:46.571Z,45.30
2019-02-20T12:33:14.853Z,45.40
2019-02-20T12:35:43.514Z,45.40
2019-02-20T12:38:11.811Z,45.50
2019-02-20T12:40:40.459Z,45.30
2019-02-20T12:43:08.739Z,45.40
2019-02-20T12:45:37.314Z,45.40
2019-02-20T12:48:05.602Z,45.50
2019-02-20T13:10:41.363Z,45.60
2019-02-20T13:13:21.231Z,45.60
2019-02-20T13:15:49.538Z,45.60
2019-02-20T13:18:17.943Z,45.60
2019-02-20T13:20:46.319Z,45.60
2019-02-20T13:23:14.641Z,45.60
2019-02-20T13:25:43.012Z,45.60
2019-02-20T13:28:11.324Z,45.60
2019-02-20T13:30:41.255Z,45.50
2019-02-20T13:33:09.807Z,45.60
2019-02-20T13:35:38.109Z,45.60
2019-02-20T13:38:09.023Z,45.50
2019-02-20T13:40:37.341Z,45.50
2019-02-20T13:43:32.818Z,45.50
2019-02-20T13:45:42.447Z,45.50
2019-02-20T13:48:12.042Z,45.60
2019-02-20T13:50:40.843Z,45.50
2019-02-20T13:53:09.464Z,45.60
2019-02-20T13:55:38.123Z,45.60
2019-02-20T13:58:06.433Z,45.40
2019-02-20T14:00:37.319Z,45.50
2019-02-20T14:03:05.892Z,45.50
2019-02-20T14:05:34.248Z,45.50
2019-02-20T14:08:02.975Z,45.50
2019-02-20T14:10:31.270Z,45.40
2019-02-20T14:12:59.940Z,45.30
2019-02-20T14:15:28.259Z,45.40
2019-02-20T14:17:56.554Z,45.30
2019-02-20T14:20:25.109Z,45.30
2019-02-20T14:22:53.759Z,45.30
2019-02-20T14:25:22.119Z,45.40
2019-02-20T14:27:52.867Z,45.40
2019-02-20T14:30:21.579Z,45.40
2019-02-20T14:32:49.958Z,45.90
2019-02-20T14:35:18.726Z,45.40
2019-02-20T14:37:47.417Z,45.40
2019-02-20T14:40:16.101Z,45.40
2019-02-20T14:42:44.383Z,46.10
2019-02-20T14:45:15.479Z,45.40
2019-02-20T14:47:44.104Z,45.40
2019-02-20T14:50:12.779Z,45.40
2019-02-20T14:52:41.342Z,45.40
2019-02-20T14:55:10.564Z,45.30
2019-02-20T14:57:38.946Z,45.30
2019-02-20T15:00:12.731Z,45.30
2019-02-20T15:02:41.107Z,45.80
2019-02-20T15:05:09.415Z,45.20
2019-02-20T15:07:38.512Z,45.40
2019-02-20T15:10:08.647Z,45.40
2019-02-20T15:12:37.214Z,45.40
2019-02-20T15:15:13.579Z,45.40
2019-02-20T15:17:41.934Z,45.40
2019-02-20T15:20:11.302Z,45.40
2019-02-20T15:22:39.734Z,45.30
2019-02-20T15:25:09.082Z,45.40
2019-02-20T15:27:37.462Z,45.10
2019-02-20T15:30:12.557Z,44.90
2019-02-20T15:32:41.242Z,45.10
2019-02-20T15:35:09.928Z,45.10
2019-02-20T15:37:38.307Z,45.10
2019-02-20T15:40:09.191Z,44.90
2019-02-20T15:42:37.554Z,44.90
2019-02-20T15:45:08.462Z,44.70
2019-02-20T15:47:36.999Z,44.70
2019-02-20T15:50:11.258Z,44.90
2019-02-20T15:52:39.846Z,44.80
2019-02-20T15:55:11.335Z,44.70
2019-02-20T15:57:40.095Z,44.80
2019-02-20T16:00:16.034Z,44.70
2019-02-20T16:02:44.784Z,45.00
2019-02-20T16:05:13.836Z,44.90
2019-02-20T16:07:42.191Z,44.60
2019-02-20T16:10:11.298Z,44.50
2019-02-20T16:12:39.585Z,44.10
2019-02-20T16:15:10.584Z,44.20
2019-02-20T16:17:39.296Z,43.90
2019-02-20T16:20:10.594Z,43.90
2019-02-20T16:22:39.231Z,44.00
2019-02-20T16:25:12.878Z,44.00
2019-02-20T16:27:46.800Z,44.30
2019-02-20T16:30:14.497Z,44.40
2019-02-20T16:32:43.195Z,44.40
2019-02-20T16:35:12.144Z,44.30
2019-02-20T16:37:40.553Z,44.40
2019-02-20T16:40:12.153Z,44.50
2019-02-20T16:42:40.807Z,44.40
2019-02-20T16:45:12.385Z,44.70
2019-02-20T16:47:40.944Z,44.70
2019-02-20T16:50:09.632Z,44.60
2019-02-20T16:52:38.314Z,44.70
2019-02-20T16:55:07.262Z,44.60
2019-02-20T16:57:35.891Z,44.50
2019-02-20T17:00:06.235Z,44.60
2019-02-20T17:02:34.839Z,44.50
2019-02-20T17:05:03.720Z,44.30
2019-02-20T17:07:32.708Z,44.20
2019-02-20T17:10:01.413Z,44.10
2019-02-20T17:12:30.446Z,44.00
2019-02-20T17:14:58.869Z,44.00
2019-02-20T17:17:27.317Z,44.10
2019-02-20T17:19:56.047Z,44.30
2019-02-20T17:22:24.930Z,44.30
2019-02-20T17:24:53.550Z,44.40
2019-02-20T17:27:22.362Z,44.50
2019-02-20T17:29:50.766Z,44.50
2019-02-20T17:32:19.367Z,44.50
2019-02-20T17:34:48.380Z,44.60
2019-02-20T17:37:17.046Z,44.50
2019-02-20T17:39:45.791Z,44.50
2019-02-20T17:42:15.808Z,44.60
2019-02-20T17:44:44.232Z,44.50
2019-02-20T17:47:12.958Z,44.70
2019-02-20T17:49:41.603Z,44.80
2019-02-20T17:52:09.925Z,45.00
2019-02-20T17:54:38.591Z,45.00
2019-02-20T17:57:07.243Z,44.80
2019-02-20T17:59:35.582Z,44.90
2019-02-20T18:02:03.970Z,44.70
2019-02-20T18:04:32.596Z,44.90
2019-02-20T18:07:00.903Z,44.70
2019-02-20T18:09:29.187Z,44.50
2019-02-20T18:11:57.519Z,44.40
2019-02-20T18:14:25.837Z,44.40
2019-02-20T18:16:54.205Z,44.50
2019-02-20T18:19:23.988Z,44.80
2019-02-20T18:21:52.329Z,44.80
2019-02-20T18:24:20.957Z,45.40
2019-02-20T18:26:49.320Z,44.60
2019-02-20T18:29:17.919Z,44.80
2019-02-20T18:31:46.515Z,44.80
2019-02-20T18:34:14.822Z,44.60
2019-02-20T18:36:43.484Z,44.70
2019-02-20T18:39:12.190Z,44.70
2019-02-20T18:41:40.551Z,44.70
2019-02-20T18:44:08.841Z,44.90
2019-02-20T18:46:38.764Z,44.80
2019-02-20T18:49:07.513Z,44.70
2019-02-20T18:51:36.109Z,44.70
2019-02-20T18:54:04.780Z,44.60
2019-02-20T18:56:34.145Z,44.70
2019-02-20T18:59:03.005Z,44.70
2019-02-20T19:01:31.370Z,45.00
2019-02-20T19:03:59.742Z,45.00
2019-02-20T19:06:28.249Z,45.00
2019-02-20T19:08:57.066Z,45.20
2019-02-20T19:11:31.305Z,44.60
2019-02-20T19:14:17.803Z,44.40
2019-02-20T19:16:58.275Z,44.30
2019-02-20T19:19:41.823Z,44.10
2019-02-20T19:22:22.751Z,44.20
2019-02-20T19:24:57.428Z,44.70
2019-02-20T19:27:38.286Z,44.40
2019-02-20T19:30:13.253Z,44.60
2019-02-20T19:32:56.575Z,44.60
2019-02-20T19:35:31.395Z,44.70
2019-02-20T19:38:32.226Z,44.70
2019-02-20T19:41:20.454Z,44.90
2019-02-20T19:43:58.268Z,44.80
2019-02-20T19:46:46.734Z,44.70
2019-02-20T19:49:24.312Z,44.70
2019-02-20T19:51:56.209Z,44.70
2019-02-20T19:54:30.682Z,44.70
2019-02-20T19:57:02.242Z,44.70
2019-02-20T19:59:50.431Z,44.70
2019-02-20T20:02:38.511Z,44.60
2019-02-20T20:05:40.378Z,44.70
2019-02-20T20:08:23.569Z,44.80
2019-02-20T20:11:12.872Z,44.90
2019-02-20T20:13:55.946Z,45.00
2019-02-20T20:16:39.293Z,44.70
2019-02-20T20:19:19.821Z,44.70
2019-02-20T20:22:11.614Z,44.90
2019-02-20T20:24:49.467Z,45.00
2019-02-20T20:27:29.683Z,44.70
2019-02-20T20:30:20.959Z,44.70
2019-02-20T20:32:56.412Z,45.00
2019-02-20T20:35:40.075Z,44.70
2019-02-20T20:38:26.196Z,44.80
2019-02-20T20:41:13.238Z,45.20
2019-02-20T20:43:58.626Z,45.10
2019-02-20T20:46:49.959Z,45.20
2019-02-20T20:49:29.474Z,44.80
2019-02-20T20:52:21.959Z,44.80
2019-02-20T20:55:10.342Z,44.80
2019-02-20T20:57:57.267Z,44.80
2019-02-20T21:01:02.455Z,44.80
2019-02-20T21:03:34.001Z,45.00
2019-02-20T21:06:20.844Z,44.90
2019-02-20T21:08:52.549Z,44.90
2019-02-20T21:11:33.290Z,45.00
2019-02-20T21:14:05.114Z,45.20
2019-02-20T21:16:51.841Z,45.00
2019-02-20T21:19:42.612Z,45.10
2019-02-20T21:22:37.851Z,45.00
2019-02-20T21:25:27.760Z,45.10
2019-02-20T21:28:11.502Z,45.10
2019-02-20T21:30:52.252Z,45.20
2019-02-20T21:33:40.407Z,45.00
2019-02-20T21:36:17.887Z,45.30
2019-02-20T21:38:58.438Z,45.40
2019-02-20T21:41:30.328Z,45.20
2019-02-20T21:44:01.881Z,45.30
2019-02-20T21:46:52.146Z,45.20
2019-02-20T21:49:48.176Z,45.30
2019-02-20T21:52:31.917Z,45.20
2019-02-20T21:55:06.692Z,45.70
2019-02-20T21:57:44.351Z,45.20
2019-02-20T22:00:17.424Z,45.10
2019-02-20T22:02:49.757Z,45.10
2019-02-20T22:05:36.894Z,45.10
2019-02-20T22:08:31.001Z,45.20
2019-02-20T22:11:29.618Z,45.10
2019-02-20T22:14:19.055Z,45.10
2019-02-20T22:17:05.614Z,45.20
2019-02-20T22:19:54.324Z,45.20
2019-02-20T22:22:49.650Z,45.10
2019-02-20T22:25:50.067Z,45.10
2019-02-20T22:28:39.411Z,45.10
2019-02-20T22:31:13.975Z,45.20
2019-02-20T22:33:48.675Z,45.20
2019-02-20T22:36:46.374Z,45.60
2019-02-20T22:39:32.883Z,45.50
2019-02-20T22:42:10.222Z,45.50
2019-02-20T22:45:00.419Z,45.40
2019-02-20T22:47:44.003Z,45.30
2019-02-20T22:50:24.091Z,45.30
2019-02-20T22:53:01.214Z,45.30
2019-02-20T22:55:52.046Z,45.40
2019-02-20T22:58:26.742Z,45.10
2019-02-20T23:01:13.428Z,45.20
2019-02-20T23:04:19.737Z,45.20
2019-02-20T23:06:57.238Z,45.20
2019-02-20T23:09:46.034Z,45.20
2019-02-20T23:12:33.112Z,45.20
2019-02-20T23:15:01.692Z,45.20
2019-02-20T23:17:30.278Z,45.20
2019-02-20T23:19:58.586Z,45.20
2019-02-20T23:22:26.875Z,45.40
2019-02-20T23:24:55.198Z,45.40
2019-02-20T23:27:23.487Z,45.20
2019-02-20T23:29:51.787Z,45.30
2019-02-20T23:32:20.443Z,45.20
2019-02-20T23:34:48.748Z,45.20
2019-02-20T23:37:17.426Z,45.30
2019-02-20T23:39:46.093Z,45.20
2019-02-20T23:42:14.678Z,45.40
2019-02-20T23:44:43.276Z,45.40
2019-02-20T23:47:11.587Z,45.40
2019-02-20T23:49:39.875Z,45.40
2019-02-20T23:52:08.507Z,45.60
2019-02-20T23:54:37.081Z,45.50
2019-02-20T23:57:05.686Z,45.40
2019-02-20T23:59:34.001Z,45.30
